createdAt,value
2018-07-02T00:00:30.753Z,1024.31
2018-07-02T00:01:58.109Z,1024.31
2018-07-02T00:03:25.445Z,1024.31
2018-07-02T00:04:52.869Z,1024.32
2018-07-02T00:06:20.169Z,1024.33
2018-07-02T00:07:47.559Z,1024.31
2018-07-02T00:09:14.833Z,1024.27
2018-07-02T00:10:42.083Z,1024.25
2018-07-02T00:12:09.387Z,1024.23
2018-07-02T00:13:36.560Z,1024.22
2018-07-02T00:15:04.196Z,1024.18
2018-07-02T00:16:31.569Z,1024.19
2018-07-02T00:17:59.037Z,1024.19
2018-07-02T00:19:26.498Z,1024.19
2018-07-02T00:20:53.811Z,1024.19
2018-07-02T00:22:21.138Z,1024.19
2018-07-02T00:23:48.420Z,1024.17
2018-07-02T00:25:15.710Z,1024.12
2018-07-02T00:26:43.077Z,1024.12
2018-07-02T00:28:10.221Z,1024.09
2018-07-02T00:29:37.701Z,1024.11
2018-07-02T00:31:05.108Z,1024.14
2018-07-02T00:32:32.334Z,1024.14
2018-07-02T00:34:00.015Z,1024.15
2018-07-02T00:35:27.336Z,1024.15
2018-07-02T00:36:54.648Z,1024.13
2018-07-02T00:38:22.114Z,1024.14
2018-07-02T00:39:49.523Z,1024.12
2018-07-02T00:41:16.855Z,1024.12
2018-07-02T00:42:44.041Z,1024.12
2018-07-02T00:44:11.550Z,1024.11
2018-07-02T00:45:38.691Z,1024.12
2018-07-02T00:47:05.913Z,1024.08
2018-07-02T00:48:33.364Z,1024.06
2018-07-02T00:50:00.609Z,1024.02
2018-07-02T00:51:28.141Z,1024.01
2018-07-02T00:52:55.464Z,1024.00
2018-07-02T00:54:22.787Z,1023.99
2018-07-02T00:55:49.849Z,1024.00
2018-07-02T00:57:17.317Z,1024.04
2018-07-02T00:58:44.570Z,1024.05
2018-07-02T01:00:12.032Z,1024.09
2018-07-02T01:01:39.318Z,1024.08
2018-07-02T01:03:06.660Z,1024.07
2018-07-02T01:04:34.016Z,1024.07
2018-07-02T01:06:01.352Z,1024.06
2018-07-02T01:07:28.668Z,1024.03
2018-07-02T01:08:56.012Z,1024.03
2018-07-02T01:10:23.270Z,1024.01
2018-07-02T01:11:50.591Z,1024.00
2018-07-02T01:13:17.920Z,1024.00
2018-07-02T01:14:45.330Z,1024.02
2018-07-02T01:16:12.787Z,1024.01
2018-07-02T01:17:40.124Z,1024.01
2018-07-02T01:19:07.511Z,1023.98
2018-07-02T01:20:34.760Z,1023.99
2018-07-02T01:22:01.763Z,1023.96
2018-07-02T01:23:29.168Z,1023.94
2018-07-02T01:24:56.474Z,1023.93
2018-07-02T01:26:24.253Z,1023.91
2018-07-02T01:27:51.344Z,1023.93
2018-07-02T01:29:18.741Z,1023.91
2018-07-02T01:30:46.062Z,1023.88
2018-07-02T01:32:13.174Z,1023.87
2018-07-02T01:33:40.471Z,1023.84
2018-07-02T01:35:08.013Z,1023.81
2018-07-02T01:36:35.033Z,1023.81
2018-07-02T01:38:02.494Z,1023.79
2018-07-02T01:39:29.485Z,1023.80
2018-07-02T01:40:56.830Z,1023.79
2018-07-02T01:42:23.986Z,1023.78
2018-07-02T01:43:51.392Z,1023.79
2018-07-02T01:45:18.568Z,1023.79
2018-07-02T01:46:46.007Z,1023.77
2018-07-02T01:48:13.282Z,1023.76
2018-07-02T01:49:40.565Z,1023.75
2018-07-02T01:51:08.034Z,1023.73
2018-07-02T01:52:35.468Z,1023.73
2018-07-02T01:54:02.898Z,1023.71
2018-07-02T01:55:30.158Z,1023.71
2018-07-02T01:56:57.643Z,1023.69
2018-07-02T01:58:24.835Z,1023.69
2018-07-02T01:59:52.143Z,1023.68
2018-07-02T02:01:19.491Z,1023.69
2018-07-02T02:02:47.006Z,1023.68
2018-07-02T02:04:14.011Z,1023.69
2018-07-02T02:05:41.528Z,1023.68
2018-07-02T02:07:08.950Z,1023.68
2018-07-02T02:08:36.419Z,1023.67
2018-07-02T02:10:03.593Z,1023.70
2018-07-02T02:11:31.174Z,1023.72
2018-07-02T02:12:58.295Z,1023.70
2018-07-02T02:14:25.689Z,1023.70
2018-07-02T02:15:53.016Z,1023.68
2018-07-02T02:17:20.295Z,1023.69
2018-07-02T02:18:47.198Z,1023.65
2018-07-02T02:20:14.481Z,1023.61
2018-07-02T02:21:41.687Z,1023.58
2018-07-02T02:23:08.960Z,1023.55
2018-07-02T02:24:36.137Z,1023.51
2018-07-02T02:26:03.483Z,1023.50
2018-07-02T02:27:30.813Z,1023.49
2018-07-02T02:28:58.145Z,1023.50
2018-07-02T02:30:25.382Z,1023.48
2018-07-02T02:31:52.869Z,1023.48
2018-07-02T02:33:20.290Z,1023.47
2018-07-02T02:34:47.722Z,1023.47
2018-07-02T02:36:14.939Z,1023.46
2018-07-02T02:37:42.328Z,1023.44
2018-07-02T02:39:09.398Z,1023.45
2018-07-02T02:40:36.859Z,1023.49
2018-07-02T02:42:04.331Z,1023.47
2018-07-02T02:43:34.382Z,1023.48
2018-07-02T02:44:58.685Z,1023.45
2018-07-02T02:46:25.855Z,1023.43
2018-07-02T02:47:53.433Z,1023.43
2018-07-02T02:49:20.750Z,1023.40
2018-07-02T02:50:47.954Z,1023.39
2018-07-02T02:52:15.427Z,1023.41
2018-07-02T02:53:42.611Z,1023.43
2018-07-02T02:55:09.974Z,1023.44
2018-07-02T02:56:37.244Z,1023.45
2018-07-02T02:58:04.554Z,1023.44
2018-07-02T02:59:31.980Z,1023.45
2018-07-02T03:00:59.060Z,1023.43
2018-07-02T03:02:26.331Z,1023.44
2018-07-02T03:03:53.756Z,1023.44
2018-07-02T03:05:20.821Z,1023.47
2018-07-02T03:06:48.211Z,1023.50
2018-07-02T03:08:15.536Z,1023.50
2018-07-02T03:09:42.772Z,1023.51
2018-07-02T03:11:09.997Z,1023.49
2018-07-02T03:12:37.380Z,1023.50
2018-07-02T03:14:04.699Z,1023.51
2018-07-02T03:15:32.085Z,1023.52
2018-07-02T03:16:59.504Z,1023.52
2018-07-02T03:18:27.052Z,1023.54
2018-07-02T03:19:54.386Z,1023.54
2018-07-02T03:21:21.753Z,1023.54
2018-07-02T03:22:48.949Z,1023.56
2018-07-02T03:24:16.388Z,1023.54
2018-07-02T03:25:43.593Z,1023.51
2018-07-02T03:27:10.860Z,1023.53
2018-07-02T03:28:38.084Z,1023.52
2018-07-02T03:30:05.256Z,1023.52
2018-07-02T03:31:32.713Z,1023.52
2018-07-02T03:33:00.065Z,1023.51
2018-07-02T03:34:27.347Z,1023.48
2018-07-02T03:35:54.855Z,1023.46
2018-07-02T03:37:22.181Z,1023.44
2018-07-02T03:38:49.442Z,1023.41
2018-07-02T03:40:16.702Z,1023.38
2018-07-02T03:41:44.174Z,1023.35
2018-07-02T03:43:11.370Z,1023.33
2018-07-02T03:44:38.905Z,1023.33
2018-07-02T03:46:06.085Z,1023.31
2018-07-02T03:47:33.348Z,1023.29
2018-07-02T03:49:00.438Z,1023.28
2018-07-02T03:50:27.757Z,1023.27
2018-07-02T03:51:55.262Z,1023.29
2018-07-02T03:53:22.398Z,1023.27
2018-07-02T03:54:49.827Z,1023.28
2018-07-02T03:56:16.951Z,1023.31
2018-07-02T03:57:44.286Z,1023.34
2018-07-02T03:59:11.663Z,1023.34
2018-07-02T04:00:38.937Z,1023.31
2018-07-02T04:02:06.487Z,1023.28
2018-07-02T04:03:33.821Z,1023.25
2018-07-02T04:05:01.203Z,1023.25
2018-07-02T04:06:28.596Z,1023.27
2018-07-02T04:07:55.950Z,1023.24
2018-07-02T04:09:23.453Z,1023.25
2018-07-02T04:10:50.479Z,1023.18
2018-07-02T04:12:17.752Z,1023.16
2018-07-02T04:13:44.990Z,1023.19
2018-07-02T04:15:12.346Z,1023.17
2018-07-02T04:16:39.573Z,1023.20
2018-07-02T04:18:06.911Z,1023.22
2018-07-02T04:19:33.878Z,1023.21
2018-07-02T04:21:00.941Z,1023.23
2018-07-02T04:22:28.319Z,1023.21
2018-07-02T04:23:55.679Z,1023.23
2018-07-02T04:25:23.207Z,1023.22
2018-07-02T04:26:50.557Z,1023.20
2018-07-02T04:28:17.953Z,1023.24
2018-07-02T04:29:45.079Z,1023.24
2018-07-02T04:31:12.317Z,1023.24
2018-07-02T04:32:39.791Z,1023.23
2018-07-02T04:34:06.874Z,1023.22
2018-07-02T04:35:34.211Z,1023.21
2018-07-02T04:37:01.135Z,1023.22
2018-07-02T04:38:28.722Z,1023.22
2018-07-02T04:39:56.040Z,1023.22
2018-07-02T04:41:23.470Z,1023.21
2018-07-02T04:42:50.611Z,1023.22
2018-07-02T04:44:17.558Z,1023.23
2018-07-02T04:45:44.857Z,1023.24
2018-07-02T04:47:12.274Z,1023.24
2018-07-02T04:48:39.639Z,1023.23
2018-07-02T04:50:06.906Z,1023.26
2018-07-02T04:51:34.324Z,1023.27
2018-07-02T04:53:01.388Z,1023.25
2018-07-02T04:54:28.856Z,1023.22
2018-07-02T04:55:56.288Z,1023.23
2018-07-02T04:57:23.569Z,1023.22
2018-07-02T04:58:50.727Z,1023.18
2018-07-02T05:00:17.824Z,1023.16
2018-07-02T05:01:45.172Z,1023.12
2018-07-02T05:03:12.377Z,1023.08
2018-07-02T05:04:39.705Z,1023.07
2018-07-02T05:06:06.921Z,1023.06
2018-07-02T05:07:34.296Z,1023.04
2018-07-02T05:09:01.364Z,1023.05
2018-07-02T05:10:28.871Z,1023.03
2018-07-02T05:11:55.957Z,1023.06
2018-07-02T05:13:23.430Z,1023.06
2018-07-02T05:14:50.768Z,1023.03
2018-07-02T05:16:18.301Z,1023.00
2018-07-02T05:17:45.598Z,1022.94
2018-07-02T05:19:12.762Z,1022.89
2018-07-02T05:20:40.127Z,1022.88
2018-07-02T05:22:07.600Z,1022.87
2018-07-02T05:23:34.617Z,1022.86
2018-07-02T05:25:01.654Z,1022.84
2018-07-02T05:26:29.123Z,1022.86
2018-07-02T05:27:56.519Z,1022.85
2018-07-02T05:29:23.806Z,1022.86
2018-07-02T05:30:50.866Z,1022.88
2018-07-02T05:32:18.314Z,1022.90
2018-07-02T05:33:45.615Z,1022.90
2018-07-02T05:35:12.713Z,1022.95
2018-07-02T05:36:40.076Z,1022.94
2018-07-02T05:38:07.349Z,1022.91
2018-07-02T05:39:34.566Z,1022.91
2018-07-02T05:41:01.901Z,1022.89
2018-07-02T05:42:29.365Z,1022.87
2018-07-02T05:43:57.104Z,1022.86
2018-07-02T05:45:24.541Z,1022.80
2018-07-02T05:46:52.168Z,1022.74
2018-07-02T05:48:19.727Z,1022.66
2018-07-02T05:49:47.255Z,1022.61
2018-07-02T05:51:14.562Z,1022.58
2018-07-02T05:52:41.608Z,1022.54
2018-07-02T05:54:08.893Z,1022.50
2018-07-02T05:55:36.426Z,1022.50
2018-07-02T05:57:03.311Z,1022.51
2018-07-02T05:58:30.934Z,1022.50
2018-07-02T05:59:58.323Z,1022.49
2018-07-02T06:01:25.864Z,1022.47
2018-07-02T06:02:53.172Z,1022.45
2018-07-02T06:04:20.667Z,1022.44
2018-07-02T06:05:48.314Z,1022.40
2018-07-02T06:07:15.459Z,1022.41
2018-07-02T06:08:42.491Z,1022.40
2018-07-02T06:10:09.699Z,1022.36
2018-07-02T06:11:37.141Z,1022.33
2018-07-02T06:13:04.712Z,1022.33
2018-07-02T06:14:31.843Z,1022.34
2018-07-02T06:15:59.041Z,1022.30
2018-07-02T06:17:26.073Z,1022.30
2018-07-02T06:18:53.667Z,1022.29
2018-07-02T06:20:21.212Z,1022.28
2018-07-02T06:21:48.506Z,1022.30
2018-07-02T06:23:15.940Z,1022.34
2018-07-02T06:24:43.452Z,1022.32
2018-07-02T06:26:10.968Z,1022.31
2018-07-02T06:27:38.644Z,1022.32
2018-07-02T06:29:05.744Z,1022.31
2018-07-02T06:30:33.525Z,1022.32
2018-07-02T06:32:01.009Z,1022.34
2018-07-02T06:33:28.532Z,1022.33
2018-07-02T06:34:55.611Z,1022.31
2018-07-02T06:36:22.942Z,1022.30
2018-07-02T06:37:50.546Z,1022.32
2018-07-02T06:39:18.140Z,1022.31
2018-07-02T06:40:45.675Z,1022.30
2018-07-02T06:42:12.838Z,1022.32
2018-07-02T06:43:40.279Z,1022.29
2018-07-02T06:45:07.978Z,1022.27
2018-07-02T06:46:35.511Z,1022.18
2018-07-02T06:48:03.291Z,1022.15
2018-07-02T06:49:30.459Z,1022.10
2018-07-02T06:50:58.104Z,1022.04
2018-07-02T06:52:25.437Z,1022.03
2018-07-02T06:53:53.110Z,1022.00
2018-07-02T06:55:20.914Z,1021.95
2018-07-02T06:56:48.357Z,1021.96
2018-07-02T06:58:15.957Z,1021.95
2018-07-02T06:59:43.420Z,1021.94
2018-07-02T07:01:11.006Z,1021.96
2018-07-02T07:02:38.602Z,1021.94
2018-07-02T07:04:06.050Z,1021.97
2018-07-02T07:05:33.747Z,1021.98
2018-07-02T07:07:00.527Z,1021.96
2018-07-02T07:08:28.058Z,1021.93
2018-07-02T07:09:55.443Z,1021.95
2018-07-02T07:11:22.999Z,1021.96
2018-07-02T07:12:50.363Z,1021.95
2018-07-02T07:14:20.753Z,1021.94
2018-07-02T07:15:44.989Z,1021.95
2018-07-02T07:17:12.280Z,1021.95
2018-07-02T07:18:39.931Z,1021.94
2018-07-02T07:20:07.543Z,1021.95
2018-07-02T07:21:35.050Z,1021.91
2018-07-02T07:23:02.603Z,1021.90
2018-07-02T07:24:30.079Z,1021.91
2018-07-02T07:25:57.668Z,1021.88
2018-07-02T07:27:25.448Z,1021.86
2018-07-02T07:28:52.947Z,1021.86
2018-07-02T07:30:20.392Z,1021.87
2018-07-02T07:31:47.722Z,1021.82
2018-07-02T07:33:15.064Z,1021.84
2018-07-02T07:34:42.564Z,1021.87
2018-07-02T07:36:09.624Z,1021.84
2018-07-02T07:37:37.236Z,1021.85
2018-07-02T07:39:04.819Z,1021.83
2018-07-02T07:40:32.450Z,1021.79
2018-07-02T07:41:59.354Z,1021.81
2018-07-02T07:43:26.665Z,1021.81
2018-07-02T07:44:54.335Z,1021.77
2018-07-02T07:46:21.781Z,1021.76
2018-07-02T07:47:49.078Z,1021.75
2018-07-02T07:49:16.406Z,1021.78
2018-07-02T07:50:44.091Z,1021.73
2018-07-02T07:52:11.082Z,1021.75
2018-07-02T07:53:38.252Z,1021.73
2018-07-02T07:55:05.664Z,1021.73
2018-07-02T07:56:33.327Z,1021.69
2018-07-02T07:58:00.503Z,1021.69
2018-07-02T07:59:27.919Z,1021.68
2018-07-02T08:00:55.597Z,1021.65
2018-07-02T08:02:23.076Z,1021.60
2018-07-02T08:03:50.516Z,1021.65
2018-07-02T08:05:18.020Z,1021.63
2018-07-02T08:06:45.267Z,1021.59
2018-07-02T08:08:12.697Z,1021.57
2018-07-02T08:09:40.027Z,1021.61
2018-07-02T08:11:07.591Z,1021.60
2018-07-02T08:12:35.404Z,1021.57
2018-07-02T08:14:02.862Z,1021.56
2018-07-02T08:15:30.366Z,1021.60
2018-07-02T08:16:57.820Z,1021.61
2018-07-02T08:18:25.436Z,1021.57
2018-07-02T08:19:53.023Z,1021.54
2018-07-02T08:21:20.430Z,1021.54
2018-07-02T08:22:47.938Z,1021.58
2018-07-02T08:24:15.324Z,1021.50
2018-07-02T08:25:42.682Z,1021.53
2018-07-02T08:27:10.015Z,1021.49
2018-07-02T08:28:37.461Z,1021.45
2018-07-02T08:30:04.996Z,1021.47
2018-07-02T08:31:32.754Z,1021.51
2018-07-02T08:33:00.176Z,1021.47
2018-07-02T08:34:27.562Z,1021.44
2018-07-02T08:35:54.991Z,1021.43
2018-07-02T08:37:22.538Z,1021.46
2018-07-02T08:38:49.997Z,1021.38
2018-07-02T08:40:17.236Z,1021.37
2018-07-02T08:41:44.758Z,1021.32
2018-07-02T08:43:11.981Z,1021.33
2018-07-02T08:44:39.228Z,1021.34
2018-07-02T08:46:06.596Z,1021.36
2018-07-02T08:47:34.006Z,1021.37
2018-07-02T08:49:01.527Z,1021.36
2018-07-02T08:50:29.140Z,1021.38
2018-07-02T08:51:56.616Z,1021.36
2018-07-02T08:53:24.212Z,1021.39
2018-07-02T08:54:51.458Z,1021.36
2018-07-02T08:56:18.845Z,1021.33
2018-07-02T08:57:46.111Z,1021.27
2018-07-02T08:59:13.469Z,1021.27
2018-07-02T09:00:41.052Z,1021.26
2018-07-02T09:02:08.426Z,1021.23
2018-07-02T09:03:35.864Z,1021.23
2018-07-02T09:05:02.842Z,1021.18
2018-07-02T09:06:30.385Z,1021.11
2018-07-02T09:07:58.003Z,1021.11
2018-07-02T09:09:25.496Z,1021.06
2018-07-02T09:10:53.008Z,1021.09
2018-07-02T09:12:20.580Z,1021.07
2018-07-02T09:13:47.980Z,1021.11
2018-07-02T09:15:15.454Z,1021.11
2018-07-02T09:16:43.016Z,1021.07
2018-07-02T09:18:10.439Z,1021.09
2018-07-02T09:19:37.873Z,1021.02
2018-07-02T09:21:05.545Z,1020.98
2018-07-02T09:22:33.105Z,1021.01
2018-07-02T09:24:00.671Z,1021.00
2018-07-02T09:25:27.799Z,1020.98
2018-07-02T09:26:55.126Z,1021.01
2018-07-02T09:28:22.881Z,1020.99
2018-07-02T09:29:50.116Z,1021.02
2018-07-02T09:31:17.617Z,1020.96
2018-07-02T09:32:45.022Z,1020.98
2018-07-02T09:34:12.422Z,1020.99
2018-07-02T09:35:40.095Z,1020.93
2018-07-02T09:37:07.653Z,1020.88
2018-07-02T09:38:34.996Z,1020.94
2018-07-02T09:40:02.689Z,1020.92
2018-07-02T09:41:30.365Z,1020.89
2018-07-02T09:42:57.593Z,1020.87
2018-07-02T09:44:25.176Z,1020.84
2018-07-02T09:45:52.723Z,1020.87
2018-07-02T09:47:20.084Z,1020.88
2018-07-02T09:48:47.552Z,1020.86
2018-07-02T09:50:14.988Z,1020.85
2018-07-02T09:51:42.507Z,1020.81
2018-07-02T09:53:10.104Z,1020.81
2018-07-02T09:54:37.786Z,1020.80
2018-07-02T09:56:05.552Z,1020.85
2018-07-02T09:57:32.984Z,1020.85
2018-07-02T09:59:00.831Z,1020.73
2018-07-02T10:00:28.279Z,1020.79
2018-07-02T10:01:55.908Z,1020.73
2018-07-02T10:03:23.238Z,1020.74
2018-07-02T10:04:50.898Z,1020.75
2018-07-02T10:06:18.339Z,1020.73
2018-07-02T10:07:45.975Z,1020.76
2018-07-02T10:09:13.351Z,1020.75
2018-07-02T10:10:41.134Z,1020.80
2018-07-02T10:12:08.346Z,1020.78
2018-07-02T10:13:35.665Z,1020.70
2018-07-02T10:15:03.367Z,1020.71
2018-07-02T10:16:30.853Z,1020.71
2018-07-02T10:17:58.498Z,1020.68
2018-07-02T10:19:26.216Z,1020.69
2018-07-02T10:20:53.844Z,1020.73
2018-07-02T10:22:21.313Z,1020.67
2018-07-02T10:23:48.650Z,1020.65
2018-07-02T10:25:16.169Z,1020.74
2018-07-02T10:26:43.511Z,1020.72
2018-07-02T10:28:10.966Z,1020.72
2018-07-02T10:29:38.543Z,1020.70
2018-07-02T10:31:06.028Z,1020.67
2018-07-02T10:32:33.067Z,1020.68
2018-07-02T10:34:00.575Z,1020.65
2018-07-02T10:35:28.228Z,1020.62
2018-07-02T10:36:55.668Z,1020.65
2018-07-02T10:38:23.142Z,1020.59
2018-07-02T10:39:50.701Z,1020.55
2018-07-02T10:41:18.267Z,1020.58
2018-07-02T10:42:45.840Z,1020.57
2018-07-02T10:44:13.273Z,1020.51
2018-07-02T10:45:40.588Z,1020.52
2018-07-02T10:47:08.018Z,1020.46
2018-07-02T10:48:35.581Z,1020.46
2018-07-02T10:50:03.139Z,1020.43
2018-07-02T10:51:30.501Z,1020.42
2018-07-02T10:52:58.033Z,1020.39
2018-07-02T10:54:25.455Z,1020.32
2018-07-02T10:55:52.987Z,1020.27
2018-07-02T10:57:20.434Z,1020.28
2018-07-02T10:58:48.034Z,1020.30
2018-07-02T11:00:15.580Z,1020.26
2018-07-02T11:01:42.816Z,1020.20
2018-07-02T11:03:10.539Z,1020.20
2018-07-02T11:04:38.085Z,1020.19
2018-07-02T11:06:05.800Z,1020.24
2018-07-02T11:07:33.444Z,1020.24
2018-07-02T11:09:00.958Z,1020.26
2018-07-02T11:10:28.469Z,1020.24
2018-07-02T11:11:55.595Z,1020.23
2018-07-02T11:13:23.072Z,1020.20
2018-07-02T11:14:50.660Z,1020.19
2018-07-02T11:16:18.425Z,1020.10
2018-07-02T11:17:45.804Z,1020.07
2018-07-02T11:19:13.274Z,1020.11
2018-07-02T11:20:40.923Z,1020.14
2018-07-02T11:22:08.646Z,1020.16
2018-07-02T11:23:39.182Z,1020.13
2018-07-02T11:25:03.833Z,1020.08
2018-07-02T11:26:31.519Z,1020.08
2018-07-02T11:27:59.256Z,1020.05
2018-07-02T11:29:26.918Z,1020.07
2018-07-02T11:30:54.288Z,1020.13
2018-07-02T11:32:21.957Z,1020.14
2018-07-02T11:33:49.427Z,1020.13
2018-07-02T11:35:17.160Z,1020.11
2018-07-02T11:36:44.505Z,1020.11
2018-07-02T11:38:12.213Z,1020.05
2018-07-02T11:39:39.652Z,1020.07
2018-07-02T11:41:07.366Z,1020.03
2018-07-02T11:42:34.987Z,1020.07
2018-07-02T11:44:02.712Z,1020.03
2018-07-02T11:45:30.471Z,1019.93
2018-07-02T11:46:57.974Z,1019.93
2018-07-02T11:48:25.609Z,1019.91
2018-07-02T11:49:53.121Z,1019.92
2018-07-02T11:51:20.954Z,1019.86
2018-07-02T11:52:48.525Z,1019.88
2018-07-02T11:54:16.199Z,1019.90
2018-07-02T11:55:43.713Z,1019.85
2018-07-02T11:57:11.211Z,1019.82
2018-07-02T11:58:38.476Z,1019.79
2018-07-02T12:00:06.245Z,1019.84
2018-07-02T12:01:33.918Z,1019.79
2018-07-02T12:03:01.532Z,1019.75
2018-07-02T12:04:29.158Z,1019.72
2018-07-02T12:05:56.863Z,1019.73
2018-07-02T12:07:24.523Z,1019.72
2018-07-02T12:08:52.174Z,1019.70
2018-07-02T12:10:19.792Z,1019.76
2018-07-02T12:11:47.355Z,1019.78
2018-07-02T12:13:14.838Z,1019.70
2018-07-02T12:14:42.517Z,1019.65
2018-07-02T12:16:10.077Z,1019.67
2018-07-02T12:17:37.623Z,1019.67
2018-07-02T12:19:05.154Z,1019.75
2018-07-02T12:20:32.865Z,1019.80
2018-07-02T12:22:00.499Z,1019.75
2018-07-02T12:23:28.402Z,1019.80
2018-07-02T12:24:56.074Z,1019.84
2018-07-02T12:26:23.731Z,1019.85
2018-07-02T12:27:51.381Z,1019.90
2018-07-02T12:29:19.005Z,1019.91
2018-07-02T12:30:46.439Z,1019.89
2018-07-02T12:32:14.195Z,1019.90
2018-07-02T12:33:41.572Z,1019.87
2018-07-02T12:35:09.148Z,1019.81
2018-07-02T12:36:36.617Z,1019.80
2018-07-02T12:38:04.288Z,1019.79
2018-07-02T12:39:31.950Z,1019.77
2018-07-02T12:40:59.645Z,1019.76
2018-07-02T12:42:27.307Z,1019.76
2018-07-02T12:43:55.015Z,1019.74
2018-07-02T12:45:22.471Z,1019.77
2018-07-02T12:46:49.880Z,1019.70
2018-07-02T12:48:17.510Z,1019.68
2018-07-02T12:49:44.905Z,1019.66
2018-07-02T12:51:12.514Z,1019.65
2018-07-02T12:52:40.232Z,1019.63
2018-07-02T12:54:07.932Z,1019.61
2018-07-02T12:55:35.371Z,1019.56
2018-07-02T12:57:02.245Z,1019.71
2018-07-02T12:58:29.872Z,1019.74
2018-07-02T12:59:57.155Z,1019.72
2018-07-02T13:01:24.810Z,1019.71
2018-07-02T13:02:52.450Z,1019.68
2018-07-02T13:04:20.132Z,1019.70
2018-07-02T13:05:47.455Z,1019.72
2018-07-02T13:07:15.097Z,1019.70
2018-07-02T13:08:42.514Z,1019.69
2018-07-02T13:10:10.025Z,1019.64
2018-07-02T13:11:37.496Z,1019.59
2018-07-02T13:13:05.122Z,1019.61
2018-07-02T13:14:32.603Z,1019.63
2018-07-02T13:16:00.402Z,1019.63
2018-07-02T13:17:28.137Z,1019.63
2018-07-02T13:18:55.687Z,1019.65
2018-07-02T13:20:23.421Z,1019.64
2018-07-02T13:21:50.658Z,1019.63
2018-07-02T13:23:18.264Z,1019.66
2018-07-02T13:24:45.709Z,1019.61
2018-07-02T13:26:13.370Z,1019.62
2018-07-02T13:27:40.017Z,1019.64
2018-07-02T13:29:07.571Z,1019.67
2018-07-02T13:30:34.932Z,1019.65
2018-07-02T13:32:02.133Z,1019.60
2018-07-02T13:33:29.702Z,1019.56
2018-07-02T13:34:56.694Z,1019.53
2018-07-02T13:36:24.452Z,1019.54
2018-07-02T13:37:52.033Z,1019.55
2018-07-02T13:39:19.586Z,1019.56
2018-07-02T13:40:47.215Z,1019.52
2018-07-02T13:42:14.797Z,1019.51
2018-07-02T13:43:42.024Z,1019.54
2018-07-02T13:45:09.718Z,1019.52
2018-07-02T13:46:37.270Z,1019.50
2018-07-02T13:48:04.956Z,1019.47
2018-07-02T13:49:32.653Z,1019.44
2018-07-02T13:51:00.230Z,1019.42
2018-07-02T13:52:27.484Z,1019.47
2018-07-02T13:53:54.622Z,1019.45
2018-07-02T13:55:22.288Z,1019.49
2018-07-02T13:56:49.552Z,1019.54
2018-07-02T13:58:17.011Z,1019.50
2018-07-02T13:59:44.507Z,1019.44
2018-07-02T14:01:12.011Z,1019.43
2018-07-02T14:02:39.521Z,1019.39
2018-07-02T14:04:07.313Z,1019.40
2018-07-02T14:05:35.001Z,1019.45
2018-07-02T14:07:02.469Z,1019.47
2018-07-02T14:08:30.049Z,1019.42
2018-07-02T14:09:57.650Z,1019.37
2018-07-02T14:11:25.248Z,1019.42
2018-07-02T14:12:52.821Z,1019.37
2018-07-02T14:14:20.198Z,1019.34
2018-07-02T14:15:47.763Z,1019.37
2018-07-02T14:17:15.129Z,1019.35
2018-07-02T14:18:42.301Z,1019.37
2018-07-02T14:20:09.713Z,1019.38
2018-07-02T14:21:37.331Z,1019.37
2018-07-02T14:23:04.916Z,1019.39
2018-07-02T14:24:33.299Z,1019.39
2018-07-02T14:25:59.957Z,1019.39
2018-07-02T14:27:27.666Z,1019.39
2018-07-02T14:28:55.401Z,1019.38
2018-07-02T14:30:22.947Z,1019.40
2018-07-02T14:31:50.207Z,1019.36
2018-07-02T14:33:17.868Z,1019.36
2018-07-02T14:34:45.376Z,1019.35
2018-07-02T14:36:12.812Z,1019.34
2018-07-02T14:37:40.392Z,1019.39
2018-07-02T14:39:08.429Z,1019.37
2018-07-02T14:40:35.973Z,1019.40
2018-07-02T14:42:03.658Z,1019.39
2018-07-02T14:43:31.199Z,1019.39
2018-07-02T14:44:58.959Z,1019.45
2018-07-02T14:46:26.310Z,1019.43
2018-07-02T14:47:53.918Z,1019.43
2018-07-02T14:49:21.460Z,1019.38
2018-07-02T14:50:49.013Z,1019.36
2018-07-02T14:52:16.643Z,1019.36
2018-07-02T14:53:44.012Z,1019.36
2018-07-02T14:55:11.798Z,1019.39
2018-07-02T14:56:39.010Z,1019.37
2018-07-02T14:58:06.591Z,1019.37
2018-07-02T14:59:34.230Z,1019.37
2018-07-02T15:01:01.815Z,1019.37
2018-07-02T15:02:29.311Z,1019.37
2018-07-02T15:03:57.000Z,1019.36
2018-07-02T15:05:24.408Z,1019.30
2018-07-02T15:06:52.195Z,1019.27
2018-07-02T15:08:19.124Z,1019.27
2018-07-02T15:09:46.760Z,1019.25
2018-07-02T15:11:13.988Z,1019.32
2018-07-02T15:12:41.417Z,1019.32
2018-07-02T15:14:08.973Z,1019.29
2018-07-02T15:15:36.752Z,1019.30
2018-07-02T15:17:04.421Z,1019.32
2018-07-02T15:18:32.131Z,1019.25
2018-07-02T15:19:59.699Z,1019.26
2018-07-02T15:21:26.972Z,1019.27
2018-07-02T15:22:54.744Z,1019.28
2018-07-02T15:24:22.257Z,1019.24
2018-07-02T15:25:49.794Z,1019.24
2018-07-02T15:27:17.408Z,1019.24
2018-07-02T15:28:44.859Z,1019.29
2018-07-02T15:30:12.435Z,1019.24
2018-07-02T15:31:40.067Z,1019.25
2018-07-02T15:33:07.585Z,1019.20
2018-07-02T15:34:34.979Z,1019.15
2018-07-02T15:36:02.510Z,1019.19
2018-07-02T15:37:30.093Z,1019.20
2018-07-02T15:38:57.684Z,1019.13
2018-07-02T15:40:25.245Z,1019.12
2018-07-02T15:41:52.898Z,1019.08
2018-07-02T15:43:20.225Z,1019.15
2018-07-02T15:44:47.677Z,1019.15
2018-07-02T15:46:15.244Z,1019.16
2018-07-02T15:47:42.724Z,1019.14
2018-07-02T15:49:10.408Z,1019.19
2018-07-02T15:50:37.986Z,1019.19
2018-07-02T15:52:05.498Z,1019.14
2018-07-02T15:53:33.029Z,1019.11
2018-07-02T15:55:00.732Z,1019.11
2018-07-02T15:56:28.221Z,1019.09
2018-07-02T15:57:55.611Z,1019.06
2018-07-02T15:59:23.195Z,1019.03
2018-07-02T16:00:50.591Z,1019.02
2018-07-02T16:02:18.196Z,1019.03
2018-07-02T16:03:45.674Z,1019.04
2018-07-02T16:05:13.330Z,1019.04
2018-07-02T16:06:40.526Z,1019.06
2018-07-02T16:08:07.935Z,1019.05
2018-07-02T16:09:35.402Z,1019.08
2018-07-02T16:11:02.864Z,1019.06
2018-07-02T16:12:30.581Z,1019.06
2018-07-02T16:13:57.606Z,1019.09
2018-07-02T16:15:25.160Z,1019.13
2018-07-02T16:16:52.769Z,1019.13
2018-07-02T16:18:20.372Z,1019.10
2018-07-02T16:19:47.785Z,1019.10
2018-07-02T16:21:15.347Z,1019.08
2018-07-02T16:22:42.787Z,1019.12
2018-07-02T16:24:10.368Z,1019.09
2018-07-02T16:25:37.996Z,1019.08
2018-07-02T16:27:05.618Z,1019.11
2018-07-02T16:28:32.989Z,1019.10
2018-07-02T16:30:00.561Z,1019.10
2018-07-02T16:31:27.927Z,1019.07
2018-07-02T16:32:55.551Z,1019.08
2018-07-02T16:34:23.221Z,1019.09
2018-07-02T16:35:50.767Z,1019.12
2018-07-02T16:37:18.136Z,1019.09
2018-07-02T16:38:45.612Z,1019.09
2018-07-02T16:40:13.002Z,1019.10
2018-07-02T16:41:40.556Z,1019.10
2018-07-02T16:43:08.193Z,1019.08
2018-07-02T16:44:35.254Z,1019.08
2018-07-02T16:46:02.489Z,1019.07
2018-07-02T16:47:30.031Z,1019.05
2018-07-02T16:48:57.655Z,1019.06
2018-07-02T16:50:25.211Z,1019.07
2018-07-02T16:51:52.575Z,1019.08
2018-07-02T16:53:20.212Z,1019.08
2018-07-02T16:54:47.617Z,1019.08
2018-07-02T16:56:15.000Z,1019.10
2018-07-02T16:57:42.316Z,1019.07
2018-07-02T16:59:09.565Z,1019.09
2018-07-02T17:00:37.242Z,1019.09
2018-07-02T17:02:04.968Z,1019.08
2018-07-02T17:03:32.439Z,1019.08
2018-07-02T17:05:00.034Z,1019.08
2018-07-02T17:06:27.659Z,1019.07
2018-07-02T17:07:55.198Z,1019.05
2018-07-02T17:09:22.772Z,1019.04
2018-07-02T17:10:50.422Z,1019.02
2018-07-02T17:12:17.945Z,1019.01
2018-07-02T17:13:45.231Z,1019.01
2018-07-02T17:15:12.513Z,1019.02
2018-07-02T17:16:40.234Z,1019.03
2018-07-02T17:18:07.814Z,1019.06
2018-07-02T17:19:35.349Z,1019.04
2018-07-02T17:21:02.832Z,1019.00
2018-07-02T17:22:30.452Z,1018.96
2018-07-02T17:23:58.056Z,1018.94
2018-07-02T17:25:25.603Z,1018.91
2018-07-02T17:26:53.140Z,1018.90
2018-07-02T17:28:20.719Z,1018.89
2018-07-02T17:29:48.107Z,1018.87
2018-07-02T17:31:15.760Z,1018.89
2018-07-02T17:32:43.296Z,1018.92
2018-07-02T17:34:10.692Z,1018.95
2018-07-02T17:35:38.384Z,1018.94
2018-07-02T17:37:05.831Z,1018.93